createdAt,value
2022-10-12T00:04:46.797Z,100965.66
2022-10-12T00:09:48.351Z,100975.16
2022-10-12T00:14:50.746Z,100975.22
2022-10-12T00:19:52.301Z,100970.03
2022-10-12T00:24:53.981Z,100967.41
2022-10-12T00:29:55.559Z,100969.19
2022-10-12T00:34:57.131Z,100970.03
2022-10-12T00:39:58.706Z,100970.09
2022-10-12T00:45:00.263Z,100982.22
2022-10-12T00:50:10.916Z,100972.78
2022-10-12T00:55:17.799Z,100978.63
2022-10-12T01:00:20.761Z,100971.53
2022-10-12T01:05:23.093Z,100970.69
2022-10-12T01:10:24.710Z,100964.59
2022-10-12T01:15:33.334Z,100959.31
2022-10-12T01:20:47.574Z,100958.44
2022-10-12T01:26:21.437Z,100957.50
2022-10-12T01:31:32.933Z,100962.72
2022-10-12T01:36:42.967Z,100972.22
2022-10-12T01:41:48.753Z,100970.69
2022-10-12T01:46:52.349Z,100961.09
2022-10-12T01:52:10.652Z,100960.03
2022-10-12T01:57:21.008Z,100958.06
2022-10-12T02:02:34.855Z,100960.56
2022-10-12T02:07:47.538Z,100952.94
2022-10-12T02:12:50.056Z,100949.38
2022-10-12T02:17:53.179Z,100947.91
2022-10-12T02:22:55.001Z,100956.41
2022-10-12T02:28:03.386Z,100945.56
2022-10-12T02:33:17.532Z,100948.88
2022-10-12T02:38:41.191Z,100953.72
2022-10-12T02:43:52.242Z,100952.53
2022-10-12T02:48:55.828Z,100945.41
2022-10-12T02:53:57.450Z,100947.38
2022-10-12T02:58:59.129Z,100947.59
2022-10-12T03:04:00.676Z,100948.50
2022-10-12T03:09:02.584Z,100949.94
2022-10-12T03:14:04.576Z,100943.59
2022-10-12T03:19:06.306Z,100939.56
2022-10-12T03:24:07.933Z,100935.09
2022-10-12T03:29:09.567Z,100939.09
2022-10-12T03:34:11.231Z,100943.34
2022-10-12T03:39:12.833Z,100939.06
2022-10-12T03:44:14.431Z,100939.19
2022-10-12T03:49:16.042Z,100935.28
2022-10-12T03:54:17.593Z,100939.66
2022-10-12T03:59:19.211Z,100943.44
2022-10-12T04:04:24.303Z,100936.25
2022-10-12T04:09:25.959Z,100930.94
2022-10-12T04:14:27.556Z,100934.34
2022-10-12T04:19:29.150Z,100932.75
2022-10-12T04:24:30.855Z,100927.88
2022-10-12T04:29:32.581Z,100932.41
2022-10-12T04:34:36.047Z,100932.19
2022-10-12T04:39:37.663Z,100929.66
2022-10-12T04:44:39.278Z,100929.66
2022-10-12T04:49:40.866Z,100924.66
2022-10-12T04:54:42.464Z,100933.44
2022-10-12T04:59:44.092Z,100933.16
2022-10-12T05:04:45.714Z,100935.06
2022-10-12T05:09:47.343Z,100934.44
2022-10-12T05:14:48.886Z,100932.25
2022-10-12T05:19:50.520Z,100930.63
2022-10-12T05:24:53.903Z,100934.09
2022-10-12T05:29:55.798Z,100929.59
2022-10-12T05:34:57.571Z,100932.09
2022-10-12T05:39:59.222Z,100935.56
2022-10-12T05:45:01.243Z,100931.72
2022-10-12T05:50:03.730Z,100926.44
2022-10-12T05:55:05.916Z,100929.84
2022-10-12T06:00:09.658Z,100933.16
2022-10-12T06:05:14.410Z,100939.44
2022-10-12T06:10:16.074Z,100935.81
2022-10-12T06:15:17.804Z,100943.66
2022-10-12T06:20:19.577Z,100947.69
2022-10-12T06:25:21.185Z,100948.59
2022-10-12T06:30:23.070Z,100959.09
2022-10-12T06:35:24.835Z,100959.34
2022-10-12T06:40:26.606Z,100959.25
2022-10-12T06:45:29.821Z,100966.19
2022-10-12T06:50:31.496Z,100971.44
2022-10-12T06:55:33.154Z,100974.13
2022-10-12T07:00:35.197Z,100969.09
2022-10-12T07:05:36.728Z,100967.66
2022-10-12T07:10:38.322Z,100966.78
2022-10-12T07:15:39.887Z,100965.16
2022-10-12T07:20:41.442Z,100959.97
2022-10-12T07:25:53.262Z,100955.78
2022-10-12T07:30:54.897Z,100956.63
2022-10-12T07:36:13.213Z,100954.00
2022-10-12T07:41:16.146Z,100952.22
2022-10-12T07:46:17.757Z,100946.16
2022-10-12T07:51:19.632Z,100946.13
2022-10-12T07:56:21.351Z,100944.28
2022-10-12T08:01:24.834Z,100945.84
2022-10-12T08:06:29.319Z,100949.28
2022-10-12T08:11:31.081Z,100952.75
2022-10-12T08:16:32.792Z,100952.81
2022-10-12T08:21:34.459Z,100949.91
2022-10-12T08:26:36.477Z,100936.88
2022-10-12T08:31:38.095Z,100936.66
2022-10-12T08:36:39.667Z,100939.38
2022-10-12T08:41:56.518Z,100946.16
2022-10-12T08:47:04.429Z,100937.41
2022-10-12T08:52:20.770Z,100924.03
2022-10-12T08:57:22.386Z,100926.97
2022-10-12T09:03:07.118Z,100910.22
2022-10-12T09:08:50.650Z,100915.13
2022-10-12T09:14:18.346Z,100917.19
2022-10-12T09:19:42.577Z,100911.63
2022-10-12T09:24:47.817Z,100912.13
2022-10-12T09:29:55.402Z,100915.69
2022-10-12T09:34:58.256Z,100903.84
2022-10-12T09:40:00.172Z,100905.41
2022-10-12T09:45:12.484Z,100900.34
2022-10-12T09:50:37.169Z,100893.69
2022-10-12T09:55:38.837Z,100888.81
2022-10-12T10:00:40.536Z,100886.69
2022-10-12T10:05:42.261Z,100881.94
2022-10-12T10:10:55.486Z,100871.44
2022-10-12T10:16:11.436Z,100876.97
2022-10-12T10:21:15.157Z,100874.25
2022-10-12T10:26:19.247Z,100865.94
2022-10-12T10:31:25.529Z,100869.59
2022-10-12T10:36:27.782Z,100862.94
2022-10-12T10:41:36.940Z,100858.22
2022-10-12T10:46:38.580Z,100852.44
2022-10-12T10:51:41.998Z,100857.09
2022-10-12T10:56:44.532Z,100855.09
2022-10-12T11:01:55.823Z,100846.44
2022-10-12T11:07:03.524Z,100843.59
2022-10-12T11:12:17.392Z,100837.16
2022-10-12T11:17:42.200Z,100831.88
2022-10-12T11:22:57.627Z,100825.88
2022-10-12T11:27:59.466Z,100817.22
2022-10-12T11:33:05.355Z,100814.63
2022-10-12T11:38:35.814Z,100805.38
2022-10-12T11:43:56.453Z,100799.03
2022-10-12T11:49:07.223Z,100794.66
2022-10-12T11:54:24.841Z,100791.84
2022-10-12T11:59:34.740Z,100781.69
2022-10-12T12:04:42.785Z,100780.53
2022-10-12T12:09:50.226Z,100773.28
2022-10-12T12:14:55.568Z,100765.81
2022-10-12T12:20:01.673Z,100759.56
2022-10-12T12:25:10.979Z,100753.94
2022-10-12T12:30:18.677Z,100751.66
2022-10-12T12:35:34.203Z,100756.19
2022-10-12T12:40:36.319Z,100753.69
2022-10-12T12:45:41.326Z,100748.00
2022-10-12T12:50:43.099Z,100748.13
2022-10-12T12:55:50.652Z,100745.56
2022-10-12T13:01:17.156Z,100744.06
2022-10-12T13:06:55.026Z,100738.38
2022-10-12T13:12:05.699Z,100730.91
2022-10-12T13:17:40.668Z,100724.59
2022-10-12T13:22:44.470Z,100726.66
2022-10-12T13:27:51.800Z,100718.44
2022-10-12T13:33:02.685Z,100714.31
2022-10-12T13:38:16.192Z,100709.47
2022-10-12T13:43:28.660Z,100705.44
2022-10-12T13:48:57.401Z,100699.41
2022-10-12T13:53:52.539Z,100691.94
2022-10-12T13:58:59.726Z,100689.50
2022-10-12T14:04:05.562Z,100678.75
2022-10-12T14:09:15.017Z,100670.63
2022-10-12T14:14:33.342Z,100668.44
2022-10-12T14:19:45.359Z,100668.81
2022-10-12T14:24:47.764Z,100671.59
2022-10-12T14:30:03.877Z,100664.50
2022-10-12T14:35:08.486Z,100659.06
2022-10-12T14:40:27.402Z,100656.13
2022-10-12T14:45:29.575Z,100647.97
2022-10-12T14:50:32.813Z,100640.75
2022-10-12T14:55:34.673Z,100650.06
2022-10-12T15:00:37.708Z,100639.66
2022-10-12T15:05:39.371Z,100636.34
2022-10-12T15:10:40.942Z,100635.31
2022-10-12T15:15:46.479Z,100626.97
2022-10-12T15:20:49.736Z,100625.44
2022-10-12T15:25:56.191Z,100629.69
2022-10-12T15:36:21.344Z,100627.81
2022-10-12T15:41:25.737Z,100626.50
2022-10-12T15:46:27.832Z,100631.19
2022-10-12T15:51:29.653Z,100623.00
2022-10-12T15:56:31.406Z,100620.34
2022-10-12T16:01:35.102Z,100624.44
2022-10-12T16:06:36.692Z,100620.00
2022-10-12T16:11:38.267Z,100611.88
2022-10-12T16:16:39.859Z,100621.78
2022-10-12T16:21:41.429Z,100621.09
2022-10-12T16:26:45.102Z,100618.69
2022-10-12T16:31:47.011Z,100614.25
2022-10-12T16:36:48.658Z,100617.19
2022-10-12T16:41:50.331Z,100629.25
2022-10-12T16:46:51.986Z,100628.50
2022-10-12T16:51:53.747Z,100628.47
2022-10-12T16:56:56.727Z,100634.63
2022-10-12T17:01:58.323Z,100634.97
2022-10-12T17:07:00.002Z,100633.75
2022-10-12T17:12:01.762Z,100633.38
2022-10-12T17:17:04.100Z,100636.41
2022-10-12T17:22:07.078Z,100637.53
2022-10-12T17:27:11.230Z,100645.38
2022-10-12T17:32:13.021Z,100652.84
2022-10-12T17:37:15.709Z,100649.69
2022-10-12T17:42:18.015Z,100646.84
2022-10-12T17:47:20.101Z,100642.91
2022-10-12T17:52:21.914Z,100646.81
2022-10-12T17:57:23.548Z,100647.09
2022-10-12T18:02:25.115Z,100641.28
2022-10-12T18:07:26.698Z,100643.59
2022-10-12T18:12:28.364Z,100647.03
2022-10-12T18:17:29.941Z,100635.00
2022-10-12T18:22:31.990Z,100636.72
2022-10-12T18:27:33.877Z,100642.19
2022-10-12T18:32:36.065Z,100641.69
2022-10-12T18:37:38.105Z,100638.28
2022-10-12T18:42:40.024Z,100644.19
2022-10-12T18:47:42.003Z,100636.56
2022-10-12T18:52:44.311Z,100636.41
2022-10-12T18:57:45.916Z,100633.00
2022-10-12T19:02:47.697Z,100636.41
2022-10-12T19:07:49.660Z,100634.81
2022-10-12T19:12:51.504Z,100644.34
2022-10-12T19:17:53.307Z,100640.00
2022-10-12T19:22:55.454Z,100634.25
2022-10-12T19:27:57.189Z,100636.13
2022-10-12T19:32:58.870Z,100634.75
2022-10-12T19:38:00.455Z,100627.38
2022-10-12T19:43:02.070Z,100626.38
2022-10-12T19:48:04.378Z,100618.53
2022-10-12T19:53:06.776Z,100615.00
2022-10-12T19:58:08.593Z,100615.38
2022-10-12T20:03:10.263Z,100615.44
2022-10-12T20:08:13.014Z,100615.59
2022-10-12T20:13:15.515Z,100613.72
2022-10-12T20:18:17.264Z,100613.84
2022-10-12T20:23:19.245Z,100616.72
2022-10-12T20:28:22.239Z,100620.13
2022-10-12T20:33:23.880Z,100611.38
2022-10-12T20:38:25.513Z,100614.06
2022-10-12T20:43:27.278Z,100616.72
2022-10-12T20:48:29.645Z,100613.13
2022-10-12T20:53:31.556Z,100612.28
2022-10-12T20:58:33.368Z,100621.25
2022-10-12T21:03:35.350Z,100611.00
2022-10-12T21:08:37.701Z,100607.53
2022-10-12T21:13:41.222Z,100602.44
2022-10-12T21:18:43.233Z,100594.63
2022-10-12T21:23:52.136Z,100591.03
2022-10-12T21:28:53.989Z,100601.69
2022-10-12T21:33:55.806Z,100607.88
2022-10-12T21:38:57.586Z,100593.00
2022-10-12T21:43:59.173Z,100600.84
2022-10-12T21:49:02.426Z,100594.69
2022-10-12T21:54:05.545Z,100599.94
2022-10-12T21:59:07.109Z,100598.16
2022-10-12T22:04:13.839Z,100592.63
2022-10-12T22:09:19.301Z,100591.03
2022-10-12T22:14:20.885Z,100584.25
2022-10-12T22:19:22.536Z,100590.56
2022-10-12T22:24:24.069Z,100592.38
2022-10-12T22:29:25.670Z,100581.03
2022-10-12T22:34:27.317Z,100582.66
2022-10-12T22:39:28.999Z,100573.06
2022-10-12T22:44:30.546Z,100580.97
2022-10-12T22:49:32.126Z,100580.91
2022-10-12T22:54:33.761Z,100572.16
2022-10-12T22:59:35.445Z,100575.63
2022-10-12T23:04:37.012Z,100567.75
2022-10-12T23:09:38.690Z,100571.19
2022-10-12T23:14:40.242Z,100571.22
2022-10-12T23:19:41.817Z,100570.34
2022-10-12T23:24:43.563Z,100570.31
2022-10-12T23:29:47.009Z,100563.22
2022-10-12T23:34:50.170Z,100561.44
2022-10-12T23:39:51.674Z,100566.53
2022-10-12T23:44:53.251Z,100565.69
2022-10-12T23:49:54.804Z,100564.66
2022-10-12T23:54:56.388Z,100553.25
2022-10-12T23:59:57.924Z,100553.16
